sensor_id;sensor_type;location;lat;lon;timestamp;temperature;humidity
59301;DHT22;45073;52.740;6.784;2023-10-19T00:01:07;9.60;99.90
59301;DHT22;45073;52.740;6.784;2023-10-19T00:03:35;9.60;99.90
59301;DHT22;45073;52.740;6.784;2023-10-19T00:06:01;9.60;99.90
59301;DHT22;45073;52.740;6.784;2023-10-19T00:08:27;9.60;99.90
59301;DHT22;45073;52.740;6.784;2023-10-19T00:11:02;9.60;99.90
59301;DHT22;45073;52.740;6.784;2023-10-19T00:13:30;9.60;99.90
59301;DHT22;45073;52.740;6.784;2023-10-19T00:15:56;9.60;99.90
59301;DHT22;45073;52.740;6.784;2023-10-19T00:18:25;9.60;99.90
59301;DHT22;45073;52.740;6.784;2023-10-19T00:20:52;9.60;99.90
59301;DHT22;45073;52.740;6.784;2023-10-19T00:23:23;9.60;99.90
59301;DHT22;45073;52.740;6.784;2023-10-19T00:25:58;9.60;99.90
59301;DHT22;45073;52.740;6.784;2023-10-19T00:28:24;9.60;99.90
59301;DHT22;45073;52.740;6.784;2023-10-19T00:30:52;9.60;99.90
59301;DHT22;45073;52.740;6.784;2023-10-19T00:33:19;9.60;99.90
59301;DHT22;45073;52.740;6.784;2023-10-19T00:35:52;9.60;99.90
59301;DHT22;45073;52.740;6.784;2023-10-19T00:38:37;9.60;99.90
59301;DHT22;45073;52.740;6.784;2023-10-19T00:41:04;9.60;99.90
59301;DHT22;45073;52.740;6.784;2023-10-19T00:43:37;9.50;99.90
59301;DHT22;45073;52.740;6.784;2023-10-19T00:46:15;9.60;99.90
59301;DHT22;45073;52.740;6.784;2023-10-19T00:48:53;9.60;99.90
59301;DHT22;45073;52.740;6.784;2023-10-19T00:51:24;9.60;99.90
59301;DHT22;45073;52.740;6.784;2023-10-19T00:54:07;9.60;99.90
59301;DHT22;45073;52.740;6.784;2023-10-19T00:56:45;9.50;99.90
59301;DHT22;45073;52.740;6.784;2023-10-19T00:59:17;9.60;99.90
59301;DHT22;45073;52.740;6.784;2023-10-19T01:01:53;9.60;99.90
59301;DHT22;45073;52.740;6.784;2023-10-19T01:04:22;9.60;99.90
59301;DHT22;45073;52.740;6.784;2023-10-19T01:06:57;9.60;99.90
59301;DHT22;45073;52.740;6.784;2023-10-19T01:09:44;9.60;99.90
59301;DHT22;45073;52.740;6.784;2023-10-19T01:12:11;9.50;99.90
59301;DHT22;45073;52.740;6.784;2023-10-19T01:15:13;9.60;99.90
59301;DHT22;45073;52.740;6.784;2023-10-19T01:18:01;9.60;99.90
59301;DHT22;45073;52.740;6.784;2023-10-19T01:20:31;9.60;99.90
59301;DHT22;45073;52.740;6.784;2023-10-19T01:22:58;9.60;99.90
59301;DHT22;45073;52.740;6.784;2023-10-19T01:25:48;9.60;99.90
59301;DHT22;45073;52.740;6.784;2023-10-19T01:31:13;9.50;99.90
59301;DHT22;45073;52.740;6.784;2023-10-19T01:33:49;9.60;99.90
59301;DHT22;45073;52.740;6.784;2023-10-19T01:36:15;9.50;99.90
59301;DHT22;45073;52.740;6.784;2023-10-19T01:38:55;9.50;99.90
59301;DHT22;45073;52.740;6.784;2023-10-19T01:41:22;9.50;99.90
59301;DHT22;45073;52.740;6.784;2023-10-19T01:43:50;9.50;99.90
59301;DHT22;45073;52.740;6.784;2023-10-19T01:46:20;9.60;99.90
59301;DHT22;45073;52.740;6.784;2023-10-19T01:48:56;9.50;99.90
59301;DHT22;45073;52.740;6.784;2023-10-19T01:51:26;9.50;99.90
59301;DHT22;45073;52.740;6.784;2023-10-19T01:53:53;9.60;99.90
59301;DHT22;45073;52.740;6.784;2023-10-19T01:56:21;9.50;99.90
59301;DHT22;45073;52.740;6.784;2023-10-19T01:58:47;9.60;99.90
59301;DHT22;45073;52.740;6.784;2023-10-19T02:01:15;9.60;99.90
59301;DHT22;45073;52.740;6.784;2023-10-19T02:04:00;9.60;99.90
59301;DHT22;45073;52.740;6.784;2023-10-19T02:06:30;9.50;99.90
59301;DHT22;45073;52.740;6.784;2023-10-19T02:09:02;9.50;99.90
59301;DHT22;45073;52.740;6.784;2023-10-19T02:12:03;9.60;99.90
59301;DHT22;45073;52.740;6.784;2023-10-19T02:14:32;9.50;99.90
59301;DHT22;45073;52.740;6.784;2023-10-19T02:16:59;9.50;99.90
59301;DHT22;45073;52.740;6.784;2023-10-19T02:19:29;9.60;99.90
59301;DHT22;45073;52.740;6.784;2023-10-19T02:22:03;9.60;99.90
59301;DHT22;45073;52.740;6.784;2023-10-19T02:24:32;9.60;99.90
59301;DHT22;45073;52.740;6.784;2023-10-19T02:26:59;9.60;99.90
59301;DHT22;45073;52.740;6.784;2023-10-19T02:29:26;9.60;99.90
59301;DHT22;45073;52.740;6.784;2023-10-19T02:31:52;9.60;99.90
59301;DHT22;45073;52.740;6.784;2023-10-19T02:34:19;9.60;99.90
59301;DHT22;45073;52.740;6.784;2023-10-19T02:36:45;9.60;99.90
59301;DHT22;45073;52.740;6.784;2023-10-19T02:39:13;9.60;99.90
59301;DHT22;45073;52.740;6.784;2023-10-19T02:41:44;9.60;99.90
59301;DHT22;45073;52.740;6.784;2023-10-19T02:44:20;9.60;99.90
59301;DHT22;45073;52.740;6.784;2023-10-19T02:46:53;9.60;99.90
59301;DHT22;45073;52.740;6.784;2023-10-19T02:49:23;9.60;99.90
59301;DHT22;45073;52.740;6.784;2023-10-19T02:51:52;9.70;99.90
59301;DHT22;45073;52.740;6.784;2023-10-19T02:54:22;9.60;99.90
59301;DHT22;45073;52.740;6.784;2023-10-19T02:56:50;9.70;99.90
59301;DHT22;45073;52.740;6.784;2023-10-19T02:59:17;9.70;99.90
59301;DHT22;45073;52.740;6.784;2023-10-19T03:01:48;9.70;99.90
59301;DHT22;45073;52.740;6.784;2023-10-19T03:04:14;9.70;99.90
59301;DHT22;45073;52.740;6.784;2023-10-19T03:06:41;9.70;99.90
59301;DHT22;45073;52.740;6.784;2023-10-19T03:09:08;9.70;99.90
59301;DHT22;45073;52.740;6.784;2023-10-19T03:11:48;9.70;99.90
59301;DHT22;45073;52.740;6.784;2023-10-19T03:14:18;9.70;99.90
59301;DHT22;45073;52.740;6.784;2023-10-19T03:16:44;9.70;99.90
59301;DHT22;45073;52.740;6.784;2023-10-19T03:19:10;9.70;99.90
59301;DHT22;45073;52.740;6.784;2023-10-19T03:21:38;9.70;99.90
59301;DHT22;45073;52.740;6.784;2023-10-19T03:24:14;9.70;99.90
59301;DHT22;45073;52.740;6.784;2023-10-19T03:26:59;9.80;99.90
59301;DHT22;45073;52.740;6.784;2023-10-19T03:29:25;9.70;99.90
59301;DHT22;45073;52.740;6.784;2023-10-19T03:31:57;9.70;99.90
59301;DHT22;45073;52.740;6.784;2023-10-19T03:34:24;9.80;99.90
59301;DHT22;45073;52.740;6.784;2023-10-19T03:36:50;9.80;99.90
59301;DHT22;45073;52.740;6.784;2023-10-19T03:39:16;9.80;99.90
59301;DHT22;45073;52.740;6.784;2023-10-19T03:41:43;9.80;99.90
59301;DHT22;45073;52.740;6.784;2023-10-19T03:44:13;9.80;99.90
59301;DHT22;45073;52.740;6.784;2023-10-19T03:46:45;9.80;99.90
59301;DHT22;45073;52.740;6.784;2023-10-19T03:49:23;9.80;99.90
59301;DHT22;45073;52.740;6.784;2023-10-19T03:51:51;9.80;99.90
59301;DHT22;45073;52.740;6.784;2023-10-19T03:54:39;9.90;99.90
59301;DHT22;45073;52.740;6.784;2023-10-19T03:57:05;9.90;99.90
59301;DHT22;45073;52.740;6.784;2023-10-19T03:59:33;9.90;99.90
59301;DHT22;45073;52.740;6.784;2023-10-19T04:02:00;9.90;99.90
59301;DHT22;45073;52.740;6.784;2023-10-19T04:04:28;9.90;99.90
59301;DHT22;45073;52.740;6.784;2023-10-19T04:06:55;9.90;99.90
59301;DHT22;45073;52.740;6.784;2023-10-19T04:09:24;9.90;99.90
59301;DHT22;45073;52.740;6.784;2023-10-19T04:11:57;9.90;99.90
59301;DHT22;45073;52.740;6.784;2023-10-19T04:14:23;9.90;99.90
59301;DHT22;45073;52.740;6.784;2023-10-19T04:16:49;9.90;99.90
59301;DHT22;45073;52.740;6.784;2023-10-19T04:19:15;10.00;99.90
59301;DHT22;45073;52.740;6.784;2023-10-19T04:21:41;9.90;99.90
59301;DHT22;45073;52.740;6.784;2023-10-19T04:24:12;10.00;99.90
59301;DHT22;45073;52.740;6.784;2023-10-19T04:26:38;10.00;99.90
59301;DHT22;45073;52.740;6.784;2023-10-19T04:29:05;10.00;99.90
59301;DHT22;45073;52.740;6.784;2023-10-19T04:31:38;10.00;99.90
59301;DHT22;45073;52.740;6.784;2023-10-19T04:34:15;10.00;99.90
59301;DHT22;45073;52.740;6.784;2023-10-19T04:36:43;10.10;99.90
59301;DHT22;45073;52.740;6.784;2023-10-19T04:39:09;10.10;99.90
59301;DHT22;45073;52.740;6.784;2023-10-19T04:41:39;10.10;99.90
59301;DHT22;45073;52.740;6.784;2023-10-19T04:44:05;10.10;99.90
59301;DHT22;45073;52.740;6.784;2023-10-19T04:46:33;10.10;99.90
59301;DHT22;45073;52.740;6.784;2023-10-19T04:48:59;10.10;99.90
59301;DHT22;45073;52.740;6.784;2023-10-19T04:51:25;10.20;99.90
59301;DHT22;45073;52.740;6.784;2023-10-19T04:53:51;10.20;99.90
59301;DHT22;45073;52.740;6.784;2023-10-19T04:56:16;10.20;99.90
59301;DHT22;45073;52.740;6.784;2023-10-19T04:58:42;10.20;99.90
59301;DHT22;45073;52.740;6.784;2023-10-19T05:01:07;10.20;99.90
59301;DHT22;45073;52.740;6.784;2023-10-19T05:03:33;10.20;99.90
59301;DHT22;45073;52.740;6.784;2023-10-19T05:05:59;10.20;99.90
59301;DHT22;45073;52.740;6.784;2023-10-19T05:08:26;10.30;99.90
59301;DHT22;45073;52.740;6.784;2023-10-19T05:10:54;10.30;99.90
59301;DHT22;45073;52.740;6.784;2023-10-19T05:13:21;10.20;99.90
59301;DHT22;45073;52.740;6.784;2023-10-19T05:15:46;10.30;99.90
59301;DHT22;45073;52.740;6.784;2023-10-19T05:18:12;10.30;99.90
59301;DHT22;45073;52.740;6.784;2023-10-19T05:20:38;10.30;99.90
59301;DHT22;45073;52.740;6.784;2023-10-19T05:23:07;10.40;99.90
59301;DHT22;45073;52.740;6.784;2023-10-19T05:25:34;10.40;99.90
59301;DHT22;45073;52.740;6.784;2023-10-19T05:28:02;10.40;99.90
59301;DHT22;45073;52.740;6.784;2023-10-19T05:30:27;10.40;99.90
59301;DHT22;45073;52.740;6.784;2023-10-19T05:32:55;10.30;99.90
59301;DHT22;45073;52.740;6.784;2023-10-19T05:35:21;10.40;99.90
59301;DHT22;45073;52.740;6.784;2023-10-19T05:37:52;10.40;99.90
59301;DHT22;45073;52.740;6.784;2023-10-19T05:40:18;10.30;99.90
59301;DHT22;45073;52.740;6.784;2023-10-19T05:42:44;10.30;99.90
59301;DHT22;45073;52.740;6.784;2023-10-19T05:45:12;10.40;99.90
59301;DHT22;45073;52.740;6.784;2023-10-19T05:47:42;10.40;99.90
59301;DHT22;45073;52.740;6.784;2023-10-19T05:50:09;10.40;99.90
59301;DHT22;45073;52.740;6.784;2023-10-19T05:52:43;10.40;99.90
59301;DHT22;45073;52.740;6.784;2023-10-19T05:55:12;10.40;99.90
59301;DHT22;45073;52.740;6.784;2023-10-19T05:57:38;10.40;99.90
59301;DHT22;45073;52.740;6.784;2023-10-19T06:00:08;10.40;99.90
59301;DHT22;45073;52.740;6.784;2023-10-19T06:02:39;10.40;99.90
59301;DHT22;45073;52.740;6.784;2023-10-19T06:05:05;10.40;99.90
59301;DHT22;45073;52.740;6.784;2023-10-19T06:07:32;10.40;99.90
59301;DHT22;45073;52.740;6.784;2023-10-19T06:09:58;10.50;99.90
59301;DHT22;45073;52.740;6.784;2023-10-19T06:12:26;10.50;99.90
59301;DHT22;45073;52.740;6.784;2023-10-19T06:14:51;10.60;99.90
59301;DHT22;45073;52.740;6.784;2023-10-19T06:17:17;10.50;99.90
59301;DHT22;45073;52.740;6.784;2023-10-19T06:19:44;10.50;99.90
59301;DHT22;45073;52.740;6.784;2023-10-19T06:22:11;10.50;99.90
59301;DHT22;45073;52.740;6.784;2023-10-19T06:24:37;10.50;99.90
59301;DHT22;45073;52.740;6.784;2023-10-19T06:27:03;10.50;99.90
59301;DHT22;45073;52.740;6.784;2023-10-19T06:29:29;10.50;99.90
59301;DHT22;45073;52.740;6.784;2023-10-19T06:31:55;10.50;99.90
59301;DHT22;45073;52.740;6.784;2023-10-19T06:34:20;10.60;99.90
59301;DHT22;45073;52.740;6.784;2023-10-19T06:36:46;10.60;99.90
59301;DHT22;45073;52.740;6.784;2023-10-19T06:39:12;10.60;99.90
59301;DHT22;45073;52.740;6.784;2023-10-19T06:41:39;10.60;99.90
59301;DHT22;45073;52.740;6.784;2023-10-19T06:44:05;10.60;99.90
59301;DHT22;45073;52.740;6.784;2023-10-19T06:46:31;10.60;99.90
59301;DHT22;45073;52.740;6.784;2023-10-19T06:48:57;10.60;99.90
59301;DHT22;45073;52.740;6.784;2023-10-19T06:51:26;10.60;99.90
59301;DHT22;45073;52.740;6.784;2023-10-19T06:53:52;10.60;99.90
59301;DHT22;45073;52.740;6.784;2023-10-19T06:56:18;10.70;99.90
59301;DHT22;45073;52.740;6.784;2023-10-19T06:58:44;10.70;99.90
59301;DHT22;45073;52.740;6.784;2023-10-19T07:01:09;10.70;99.90
59301;DHT22;45073;52.740;6.784;2023-10-19T07:03:36;10.70;99.90
59301;DHT22;45073;52.740;6.784;2023-10-19T07:06:02;10.70;99.90
59301;DHT22;45073;52.740;6.784;2023-10-19T07:08:28;10.70;99.90
59301;DHT22;45073;52.740;6.784;2023-10-19T07:10:54;10.80;99.90
59301;DHT22;45073;52.740;6.784;2023-10-19T07:13:19;10.80;99.90
59301;DHT22;45073;52.740;6.784;2023-10-19T07:15:46;10.80;99.90
59301;DHT22;45073;52.740;6.784;2023-10-19T07:18:13;10.80;99.90
59301;DHT22;45073;52.740;6.784;2023-10-19T07:20:39;10.80;99.90
59301;DHT22;45073;52.740;6.784;2023-10-19T07:23:05;10.80;99.90
59301;DHT22;45073;52.740;6.784;2023-10-19T07:25:52;10.80;99.90
59301;DHT22;45073;52.740;6.784;2023-10-19T07:28:25;10.80;99.90
59301;DHT22;45073;52.740;6.784;2023-10-19T07:30:55;10.80;99.90
59301;DHT22;45073;52.740;6.784;2023-10-19T07:33:21;10.90;99.90
59301;DHT22;45073;52.740;6.784;2023-10-19T07:35:49;10.90;99.90
59301;DHT22;45073;52.740;6.784;2023-10-19T07:38:22;10.90;99.90
59301;DHT22;45073;52.740;6.784;2023-10-19T07:40:48;10.90;99.90
59301;DHT22;45073;52.740;6.784;2023-10-19T07:43:13;10.90;99.90
59301;DHT22;45073;52.740;6.784;2023-10-19T07:45:39;10.90;99.90
59301;DHT22;45073;52.740;6.784;2023-10-19T07:48:05;10.90;99.90
59301;DHT22;45073;52.740;6.784;2023-10-19T07:50:37;11.00;99.90
59301;DHT22;45073;52.740;6.784;2023-10-19T07:53:04;11.00;99.90
59301;DHT22;45073;52.740;6.784;2023-10-19T07:55:30;11.00;99.90
59301;DHT22;45073;52.740;6.784;2023-10-19T07:57:58;11.00;99.90
59301;DHT22;45073;52.740;6.784;2023-10-19T08:00:33;11.00;99.90
59301;DHT22;45073;52.740;6.784;2023-10-19T08:03:00;11.00;99.90
59301;DHT22;45073;52.740;6.784;2023-10-19T08:05:25;11.00;99.90
59301;DHT22;45073;52.740;6.784;2023-10-19T08:07:51;11.00;99.90
59301;DHT22;45073;52.740;6.784;2023-10-19T08:10:19;11.00;99.90
59301;DHT22;45073;52.740;6.784;2023-10-19T08:12:45;11.00;99.90
59301;DHT22;45073;52.740;6.784;2023-10-19T08:15:16;11.10;99.90
59301;DHT22;45073;52.740;6.784;2023-10-19T08:17:43;11.20;99.90
59301;DHT22;45073;52.740;6.784;2023-10-19T08:20:11;11.20;99.90
59301;DHT22;45073;52.740;6.784;2023-10-19T08:22:49;11.20;99.90
59301;DHT22;45073;52.740;6.784;2023-10-19T08:25:15;11.20;99.90
59301;DHT22;45073;52.740;6.784;2023-10-19T08:27:44;11.20;99.90
59301;DHT22;45073;52.740;6.784;2023-10-19T08:30:11;11.20;99.90
59301;DHT22;45073;52.740;6.784;2023-10-19T08:32:39;11.20;99.90
59301;DHT22;45073;52.740;6.784;2023-10-19T08:35:05;11.30;99.90
59301;DHT22;45073;52.740;6.784;2023-10-19T08:37:31;11.40;99.90
59301;DHT22;45073;52.740;6.784;2023-10-19T08:39:57;11.40;99.90
59301;DHT22;45073;52.740;6.784;2023-10-19T08:42:23;11.40;99.90
59301;DHT22;45073;52.740;6.784;2023-10-19T08:44:49;11.50;99.90
59301;DHT22;45073;52.740;6.784;2023-10-19T08:47:15;11.50;99.90
59301;DHT22;45073;52.740;6.784;2023-10-19T08:49:41;11.60;99.90
59301;DHT22;45073;52.740;6.784;2023-10-19T08:52:07;11.50;99.90
59301;DHT22;45073;52.740;6.784;2023-10-19T08:54:34;11.60;99.90
59301;DHT22;45073;52.740;6.784;2023-10-19T08:57:00;11.60;99.90
59301;DHT22;45073;52.740;6.784;2023-10-19T08:59:25;11.70;99.90
59301;DHT22;45073;52.740;6.784;2023-10-19T09:02:03;11.70;99.90
59301;DHT22;45073;52.740;6.784;2023-10-19T09:04:29;11.80;99.90
59301;DHT22;45073;52.740;6.784;2023-10-19T09:06:55;11.80;99.90
59301;DHT22;45073;52.740;6.784;2023-10-19T09:09:21;11.80;99.90
59301;DHT22;45073;52.740;6.784;2023-10-19T09:11:51;11.80;99.90
59301;DHT22;45073;52.740;6.784;2023-10-19T09:14:32;11.80;99.90
59301;DHT22;45073;52.740;6.784;2023-10-19T09:16:59;11.80;99.90
59301;DHT22;45073;52.740;6.784;2023-10-19T09:19:46;11.80;99.90
59301;DHT22;45073;52.740;6.784;2023-10-19T09:22:14;11.80;99.90
59301;DHT22;45073;52.740;6.784;2023-10-19T09:24:51;11.90;99.90
59301;DHT22;45073;52.740;6.784;2023-10-19T09:27:21;11.90;99.90
59301;DHT22;45073;52.740;6.784;2023-10-19T09:29:48;11.90;99.90
59301;DHT22;45073;52.740;6.784;2023-10-19T09:32:14;11.90;99.90
59301;DHT22;45073;52.740;6.784;2023-10-19T09:34:41;11.90;99.90
59301;DHT22;45073;52.740;6.784;2023-10-19T09:37:10;11.90;99.90
59301;DHT22;45073;52.740;6.784;2023-10-19T09:39:37;11.90;99.90
59301;DHT22;45073;52.740;6.784;2023-10-19T09:42:08;12.00;99.90
59301;DHT22;45073;52.740;6.784;2023-10-19T09:44:47;12.00;99.90
59301;DHT22;45073;52.740;6.784;2023-10-19T09:47:25;12.00;99.90
59301;DHT22;45073;52.740;6.784;2023-10-19T09:49:55;12.00;99.90
59301;DHT22;45073;52.740;6.784;2023-10-19T09:52:21;12.00;99.90
59301;DHT22;45073;52.740;6.784;2023-10-19T09:55:30;12.00;99.90
59301;DHT22;45073;52.740;6.784;2023-10-19T09:57:58;12.10;99.90
59301;DHT22;45073;52.740;6.784;2023-10-19T10:00:28;12.10;99.90
59301;DHT22;45073;52.740;6.784;2023-10-19T10:02:57;12.20;99.90
59301;DHT22;45073;52.740;6.784;2023-10-19T10:10:46;12.20;99.90
59301;DHT22;45073;52.740;6.784;2023-10-19T10:13:37;12.20;99.90
59301;DHT22;45073;52.740;6.784;2023-10-19T10:16:03;12.30;99.90
59301;DHT22;45073;52.740;6.784;2023-10-19T10:18:33;12.30;99.90
59301;DHT22;45073;52.740;6.784;2023-10-19T10:21:12;12.40;99.90
59301;DHT22;45073;52.740;6.784;2023-10-19T10:23:54;12.30;99.90
59301;DHT22;45073;52.740;6.784;2023-10-19T10:26:23;12.40;99.90
59301;DHT22;45073;52.740;6.784;2023-10-19T10:31:49;12.40;99.90
59301;DHT22;45073;52.740;6.784;2023-10-19T10:37:04;12.60;99.90
59301;DHT22;45073;52.740;6.784;2023-10-19T10:39:37;12.60;99.90
59301;DHT22;45073;52.740;6.784;2023-10-19T10:42:08;12.50;99.90
59301;DHT22;45073;52.740;6.784;2023-10-19T10:44:36;12.60;99.90
59301;DHT22;45073;52.740;6.784;2023-10-19T10:47:06;12.60;99.90
59301;DHT22;45073;52.740;6.784;2023-10-19T10:49:33;12.60;99.90
59301;DHT22;45073;52.740;6.784;2023-10-19T10:51:59;12.70;99.90
59301;DHT22;45073;52.740;6.784;2023-10-19T10:54:24;12.80;99.90
59301;DHT22;45073;52.740;6.784;2023-10-19T10:56:50;12.90;99.90
59301;DHT22;45073;52.740;6.784;2023-10-19T10:59:16;12.80;99.90
59301;DHT22;45073;52.740;6.784;2023-10-19T11:01:41;12.80;99.90
59301;DHT22;45073;52.740;6.784;2023-10-19T11:04:09;12.80;99.90
59301;DHT22;45073;52.740;6.784;2023-10-19T11:06:52;12.80;99.90
59301;DHT22;45073;52.740;6.784;2023-10-19T11:09:20;12.80;99.90
59301;DHT22;45073;52.740;6.784;2023-10-19T11:11:50;12.80;99.90
59301;DHT22;45073;52.740;6.784;2023-10-19T11:14:17;12.90;99.90
59301;DHT22;45073;52.740;6.784;2023-10-19T11:16:43;12.90;99.90
59301;DHT22;45073;52.740;6.784;2023-10-19T11:19:09;12.90;99.90
59301;DHT22;45073;52.740;6.784;2023-10-19T11:21:36;12.90;99.90
59301;DHT22;45073;52.740;6.784;2023-10-19T11:24:01;12.90;99.90
59301;DHT22;45073;52.740;6.784;2023-10-19T11:26:27;12.90;99.90
59301;DHT22;45073;52.740;6.784;2023-10-19T11:29:01;12.90;99.90
59301;DHT22;45073;52.740;6.784;2023-10-19T11:31:27;13.00;99.90
59301;DHT22;45073;52.740;6.784;2023-10-19T11:33:54;13.00;99.90
59301;DHT22;45073;52.740;6.784;2023-10-19T11:36:26;13.10;99.90
59301;DHT22;45073;52.740;6.784;2023-10-19T11:38:52;13.30;99.90
59301;DHT22;45073;52.740;6.784;2023-10-19T11:41:19;13.40;99.90
59301;DHT22;45073;52.740;6.784;2023-10-19T11:43:48;13.40;99.90
59301;DHT22;45073;52.740;6.784;2023-10-19T11:46:16;13.40;99.90
59301;DHT22;45073;52.740;6.784;2023-10-19T11:48:43;13.60;99.90
59301;DHT22;45073;52.740;6.784;2023-10-19T11:51:09;13.70;99.90
59301;DHT22;45073;52.740;6.784;2023-10-19T11:53:37;13.80;99.90
59301;DHT22;45073;52.740;6.784;2023-10-19T11:56:10;13.90;99.90
59301;DHT22;45073;52.740;6.784;2023-10-19T11:58:41;14.00;99.90
59301;DHT22;45073;52.740;6.784;2023-10-19T12:01:12;14.00;99.90
59301;DHT22;45073;52.740;6.784;2023-10-19T12:03:38;14.00;99.90
59301;DHT22;45073;52.740;6.784;2023-10-19T12:06:06;14.00;99.90
59301;DHT22;45073;52.740;6.784;2023-10-19T12:08:35;14.00;99.90
59301;DHT22;45073;52.740;6.784;2023-10-19T12:11:02;14.00;99.90
59301;DHT22;45073;52.740;6.784;2023-10-19T12:13:29;14.10;99.90
59301;DHT22;45073;52.740;6.784;2023-10-19T12:15:54;14.10;99.90
59301;DHT22;45073;52.740;6.784;2023-10-19T12:18:21;14.20;99.90
59301;DHT22;45073;52.740;6.784;2023-10-19T12:20:47;14.20;99.90
59301;DHT22;45073;52.740;6.784;2023-10-19T12:23:14;14.20;99.90
59301;DHT22;45073;52.740;6.784;2023-10-19T12:25:40;14.30;99.90
59301;DHT22;45073;52.740;6.784;2023-10-19T12:28:07;14.40;99.90
59301;DHT22;45073;52.740;6.784;2023-10-19T12:30:33;14.50;99.90
59301;DHT22;45073;52.740;6.784;2023-10-19T12:33:05;14.50;99.90
59301;DHT22;45073;52.740;6.784;2023-10-19T12:35:38;14.50;99.90
59301;DHT22;45073;52.740;6.784;2023-10-19T12:38:11;14.50;99.90
59301;DHT22;45073;52.740;6.784;2023-10-19T12:40:45;14.50;99.90
59301;DHT22;45073;52.740;6.784;2023-10-19T12:43:12;14.40;99.90
59301;DHT22;45073;52.740;6.784;2023-10-19T12:45:39;14.40;99.90
59301;DHT22;45073;52.740;6.784;2023-10-19T12:48:06;14.50;99.90
59301;DHT22;45073;52.740;6.784;2023-10-19T12:50:34;14.60;99.90
59301;DHT22;45073;52.740;6.784;2023-10-19T12:53:00;14.50;99.90
59301;DHT22;45073;52.740;6.784;2023-10-19T12:55:26;14.50;99.90
59301;DHT22;45073;52.740;6.784;2023-10-19T12:57:56;14.50;99.90
59301;DHT22;45073;52.740;6.784;2023-10-19T13:00:23;14.40;99.90
59301;DHT22;45073;52.740;6.784;2023-10-19T13:02:50;14.30;99.90
59301;DHT22;45073;52.740;6.784;2023-10-19T13:05:16;14.30;99.90
59301;DHT22;45073;52.740;6.784;2023-10-19T13:07:44;14.20;99.90
59301;DHT22;45073;52.740;6.784;2023-10-19T13:10:10;14.20;99.90
59301;DHT22;45073;52.740;6.784;2023-10-19T13:12:39;14.10;99.90
59301;DHT22;45073;52.740;6.784;2023-10-19T13:15:06;14.10;99.90
59301;DHT22;45073;52.740;6.784;2023-10-19T13:17:39;14.10;99.90
59301;DHT22;45073;52.740;6.784;2023-10-19T13:20:06;14.10;99.90
59301;DHT22;45073;52.740;6.784;2023-10-19T13:22:41;14.10;99.90
59301;DHT22;45073;52.740;6.784;2023-10-19T13:25:07;14.10;99.90
59301;DHT22;45073;52.740;6.784;2023-10-19T13:27:46;14.10;99.90
59301;DHT22;45073;52.740;6.784;2023-10-19T13:30:12;14.00;99.90
59301;DHT22;45073;52.740;6.784;2023-10-19T13:32:40;14.00;99.90
59301;DHT22;45073;52.740;6.784;2023-10-19T13:35:07;14.10;99.90
59301;DHT22;45073;52.740;6.784;2023-10-19T13:37:33;14.10;99.90
59301;DHT22;45073;52.740;6.784;2023-10-19T13:39:58;14.10;99.90
59301;DHT22;45073;52.740;6.784;2023-10-19T13:42:26;14.20;99.90
59301;DHT22;45073;52.740;6.784;2023-10-19T13:44:54;14.10;99.90
59301;DHT22;45073;52.740;6.784;2023-10-19T13:47:19;14.00;99.90
59301;DHT22;45073;52.740;6.784;2023-10-19T13:49:45;13.90;99.90
59301;DHT22;45073;52.740;6.784;2023-10-19T13:52:12;13.90;99.90
59301;DHT22;45073;52.740;6.784;2023-10-19T13:54:40;13.90;99.90
59301;DHT22;45073;52.740;6.784;2023-10-19T13:57:06;13.90;99.90
59301;DHT22;45073;52.740;6.784;2023-10-19T13:59:31;13.90;99.90
59301;DHT22;45073;52.740;6.784;2023-10-19T14:02:00;13.90;99.90
59301;DHT22;45073;52.740;6.784;2023-10-19T14:04:26;13.80;99.90
59301;DHT22;45073;52.740;6.784;2023-10-19T14:06:51;13.80;99.90
59301;DHT22;45073;52.740;6.784;2023-10-19T14:09:17;13.80;99.90
59301;DHT22;45073;52.740;6.784;2023-10-19T14:11:43;13.80;99.90
59301;DHT22;45073;52.740;6.784;2023-10-19T14:14:12;13.80;99.90
59301;DHT22;45073;52.740;6.784;2023-10-19T14:16:37;13.80;99.90
59301;DHT22;45073;52.740;6.784;2023-10-19T14:19:04;13.70;99.90
59301;DHT22;45073;52.740;6.784;2023-10-19T14:21:30;13.70;99.90
59301;DHT22;45073;52.740;6.784;2023-10-19T14:23:56;13.70;99.90
59301;DHT22;45073;52.740;6.784;2023-10-19T14:26:22;13.70;99.90
59301;DHT22;45073;52.740;6.784;2023-10-19T14:28:48;13.70;99.90
59301;DHT22;45073;52.740;6.784;2023-10-19T14:31:13;13.70;99.90
59301;DHT22;45073;52.740;6.784;2023-10-19T14:33:39;13.70;99.90
59301;DHT22;45073;52.740;6.784;2023-10-19T14:36:05;13.70;99.90
59301;DHT22;45073;52.740;6.784;2023-10-19T14:38:31;13.60;99.90
59301;DHT22;45073;52.740;6.784;2023-10-19T14:40:58;13.60;99.90
59301;DHT22;45073;52.740;6.784;2023-10-19T14:43:24;13.60;99.90
59301;DHT22;45073;52.740;6.784;2023-10-19T14:45:51;13.70;99.90
59301;DHT22;45073;52.740;6.784;2023-10-19T14:48:17;13.60;99.90
59301;DHT22;45073;52.740;6.784;2023-10-19T14:50:44;13.50;99.90
59301;DHT22;45073;52.740;6.784;2023-10-19T14:53:10;13.50;99.90
59301;DHT22;45073;52.740;6.784;2023-10-19T14:55:37;13.50;99.90
59301;DHT22;45073;52.740;6.784;2023-10-19T14:58:03;13.50;99.90
59301;DHT22;45073;52.740;6.784;2023-10-19T15:00:31;13.40;99.90
59301;DHT22;45073;52.740;6.784;2023-10-19T15:03:03;13.40;99.90
59301;DHT22;45073;52.740;6.784;2023-10-19T15:05:36;13.50;99.90
59301;DHT22;45073;52.740;6.784;2023-10-19T15:08:03;13.40;99.90
59301;DHT22;45073;52.740;6.784;2023-10-19T15:10:30;13.30;99.90
59301;DHT22;45073;52.740;6.784;2023-10-19T15:12:57;13.30;99.90
59301;DHT22;45073;52.740;6.784;2023-10-19T15:15:25;13.20;99.90
59301;DHT22;45073;52.740;6.784;2023-10-19T15:17:51;13.20;99.90
59301;DHT22;45073;52.740;6.784;2023-10-19T15:20:19;13.10;99.90
59301;DHT22;45073;52.740;6.784;2023-10-19T15:22:46;13.10;99.90
59301;DHT22;45073;52.740;6.784;2023-10-19T15:25:15;13.20;99.90
59301;DHT22;45073;52.740;6.784;2023-10-19T15:27:45;13.20;99.90
59301;DHT22;45073;52.740;6.784;2023-10-19T15:30:12;13.10;99.90
59301;DHT22;45073;52.740;6.784;2023-10-19T15:32:39;13.10;99.90
59301;DHT22;45073;52.740;6.784;2023-10-19T15:35:07;13.00;99.90
59301;DHT22;45073;52.740;6.784;2023-10-19T15:37:35;13.00;99.90
59301;DHT22;45073;52.740;6.784;2023-10-19T15:40:02;12.90;99.90
59301;DHT22;45073;52.740;6.784;2023-10-19T15:42:29;12.90;99.90
59301;DHT22;45073;52.740;6.784;2023-10-19T15:44:55;12.90;99.90
59301;DHT22;45073;52.740;6.784;2023-10-19T15:47:21;12.90;99.90
59301;DHT22;45073;52.740;6.784;2023-10-19T15:49:54;12.90;99.90
59301;DHT22;45073;52.740;6.784;2023-10-19T15:52:24;12.90;99.90
59301;DHT22;45073;52.740;6.784;2023-10-19T15:54:51;12.80;99.90
59301;DHT22;45073;52.740;6.784;2023-10-19T15:57:17;12.80;99.90
59301;DHT22;45073;52.740;6.784;2023-10-19T15:59:43;12.90;99.90